Time;durP1;ratioP1;P1;durP2;ratioP2;P2;SDS_P1;SDS_P2;PMS_P1;PMS_P2;Temp;Humidity;BMP_temperature;BMP_pressure;BME280_temperature;BME280_humidity;BME280_pressure;Samples;Min_cycle;Max_cycle;Signal;HPM_P1;HPM_P2
2022/01/15 00:01:06;;;;;;;20.77;14.90;;;;;;;0.40;100.00;97679.97;5009155;28;20077;-59
2022/01/15 00:03:34;;;;;;;21.17;14.38;;;;;;;0.41;100.00;97679.94;5001042;28;20066;-60
2022/01/15 00:06:03;;;;;;;22.52;14.50;;;;;;;0.37;100.00;97678.31;5013263;28;20070;-61
2022/01/15 00:08:33;;;;;;;22.98;14.40;;;;;;;0.38;100.00;97677.44;5003484;28;20068;-59
2022/01/15 00:11:01;;;;;;;22.70;14.70;;;;;;;0.20;100.00;97681.47;5004956;28;20089;-60
2022/01/15 00:13:31;;;;;;;20.80;14.90;;;;;;;0.27;100.00;97673.50;5001046;28;20445;-61
2022/01/15 00:16:07;;;;;;;22.92;15.13;;;;;;;0.26;100.00;97671.81;5003828;28;20072;-60
2022/01/15 00:18:47;;;;;;;21.55;13.80;;;;;;;0.19;100.00;97677.19;5004151;28;20827;-60
2022/01/15 00:21:16;;;;;;;20.42;13.63;;;;;;;0.14;100.00;97663.56;5006407;28;20495;-59
2022/01/15 00:23:46;;;;;;;21.05;13.93;;;;;;;0.15;100.00;97667.84;5000989;28;20497;-60
2022/01/15 00:26:14;;;;;;;18.65;13.40;;;;;;;0.10;100.00;97669.72;5002733;28;20066;-60
2022/01/15 00:28:42;;;;;;;18.25;13.23;;;;;;;0.08;100.00;97665.50;5001782;28;20054;-60
2022/01/15 00:31:11;;;;;;;20.27;13.27;;;;;;;-0.02;100.00;97672.72;5015560;28;20080;-60
2022/01/15 00:33:40;;;;;;;18.73;13.27;;;;;;;-0.14;100.00;97666.16;5008188;28;20082;-60
2022/01/15 00:36:08;;;;;;;18.88;13.38;;;;;;;-0.07;100.00;97667.69;5007385;28;20068;-60
2022/01/15 00:38:37;;;;;;;16.90;12.50;;;;;;;-0.12;100.00;97663.56;5003208;28;20057;-58
2022/01/15 00:41:07;;;;;;;13.00;10.98;;;;;;;-0.25;100.00;97665.69;5001627;28;20068;-59
2022/01/15 00:43:35;;;;;;;15.02;11.60;;;;;;;-0.13;100.00;97665.31;4997345;28;20074;-60
2022/01/15 00:46:04;;;;;;;16.85;12.05;;;;;;;-0.18;100.00;97663.75;5007375;28;20086;-60
2022/01/15 00:48:33;;;;;;;16.25;12.00;;;;;;;-0.13;100.00;97667.06;5003373;28;20077;-60
2022/01/15 00:51:01;;;;;;;16.63;12.30;;;;;;;-0.28;100.00;97664.03;4999362;28;20057;-60
2022/01/15 00:53:30;;;;;;;14.93;11.43;;;;;;;-0.41;100.00;97674.81;5000854;28;20528;-62
2022/01/15 00:55:58;;;;;;;15.38;11.85;;;;;;;-0.49;100.00;97668.13;5000236;28;20069;-56
2022/01/15 00:58:28;;;;;;;15.98;11.48;;;;;;;-0.51;100.00;97650.97;5007026;28;20512;-60
2022/01/15 01:00:56;;;;;;;16.60;12.02;;;;;;;-0.81;100.00;97663.09;4999138;28;20066;-60
2022/01/15 01:03:25;;;;;;;15.07;11.82;;;;;;;-0.43;100.00;97661.91;5009334;28;20054;-60
2022/01/15 01:05:53;;;;;;;13.25;11.00;;;;;;;-0.51;100.00;97656.97;5004503;28;20153;-60
2022/01/15 01:08:22;;;;;;;16.88;12.55;;;;;;;-0.56;100.00;97671.81;5004463;28;20072;-58
2022/01/15 01:10:55;;;;;;;16.00;12.43;;;;;;;-0.40;100.00;97658.41;5003088;28;20556;-60
2022/01/15 01:24:37;;;;;;;14.63;12.25;;;;;;;-0.52;100.00;97652.72;5006158;28;20065;-60
2022/01/15 01:27:11;;;;;;;16.77;13.02;;;;;;;-0.45;100.00;97655.09;5006431;28;20073;-58
2022/01/15 01:29:52;;;;;;;17.50;13.18;;;;;;;-0.54;100.00;97662.25;5000240;28;20074;-61
2022/01/15 01:32:44;;;;;;;20.17;13.93;;;;;;;-0.51;100.00;97645.78;5007276;28;20065;-59
2022/01/15 01:35:16;;;;;;;19.88;13.50;;;;;;;-0.65;100.00;97645.34;4994765;28;20459;-56
2022/01/15 01:37:49;;;;;;;20.48;13.38;;;;;;;-0.64;100.00;97650.47;5007596;28;20089;-60
2022/01/15 01:40:22;;;;;;;20.27;14.30;;;;;;;-0.60;100.00;97648.66;5001348;28;20092;-59
2022/01/15 01:43:00;;;;;;;19.98;14.50;;;;;;;-0.63;100.00;97646.13;5001791;28;20078;-61
2022/01/15 01:45:28;;;;;;;20.83;14.98;;;;;;;-0.61;100.00;97647.81;5003308;28;20074;-57
2022/01/15 01:47:58;;;;;;;25.30;15.52;;;;;;;-0.63;100.00;97636.63;5006474;28;20064;-59
2022/01/15 01:50:28;;;;;;;24.65;15.00;;;;;;;-0.63;100.00;97628.84;5002605;28;20084;-60
2022/01/15 01:52:59;;;;;;;21.25;14.32;;;;;;;-0.62;100.00;97632.28;5000988;28;20065;-60
2022/01/15 01:55:28;;;;;;;21.58;14.32;;;;;;;-0.59;100.00;97629.59;4998959;28;20077;-60
2022/01/15 01:57:58;;;;;;;17.92;13.60;;;;;;;-0.62;100.00;97624.50;5002797;28;20533;-60
2022/01/15 02:00:28;;;;;;;22.48;14.60;;;;;;;-0.66;100.00;97617.75;5003680;28;20445;-61
2022/01/15 02:02:58;;;;;;;20.70;14.45;;;;;;;-0.80;100.00;97613.81;5000112;28;20468;-60
2022/01/15 02:05:27;;;;;;;21.27;14.43;;;;;;;-0.82;100.00;97610.44;5002260;28;20054;-60
2022/01/15 02:07:56;;;;;;;22.45;14.40;;;;;;;-0.73;100.00;97614.50;5002782;28;20042;-60
2022/01/15 02:10:24;;;;;;;22.85;14.38;;;;;;;-0.82;100.00;97615.63;5000090;28;20085;-60
2022/01/15 02:12:55;;;;;;;20.67;14.02;;;;;;;-0.91;100.00;97612.47;5001954;28;20569;-59
2022/01/15 02:15:24;;;;;;;25.65;15.85;;;;;;;-0.99;100.00;97610.09;5003728;28;20073;-61
2022/01/15 02:17:53;;;;;;;24.73;14.95;;;;;;;-0.82;100.00;97607.84;5002042;28;20465;-60
2022/01/15 02:20:36;;;;;;;27.40;15.32;;;;;;;-0.90;100.00;97609.81;4997375;28;20069;-59
2022/01/15 02:25:54;;;;;;;22.40;15.63;;;;;;;-0.94;100.00;97608.22;4998751;28;20112;-59
2022/01/15 02:28:24;;;;;;;25.73;15.88;;;;;;;-0.93;100.00;97609.06;5002913;28;20093;-60
2022/01/15 02:30:53;;;;;;;22.73;16.00;;;;;;;-0.90;100.00;97601.19;5007009;28;20058;-59
2022/01/15 02:33:22;;;;;;;20.58;14.63;;;;;;;-1.00;100.00;97592.84;5000840;28;20070;-56
2022/01/15 02:35:53;;;;;;;20.60;14.73;;;;;;;-1.02;100.00;97598.09;5000131;28;20069;-57
2022/01/15 02:38:21;;;;;;;23.83;15.77;;;;;;;-0.94;100.00;97589.25;4999583;28;20077;-58
2022/01/15 02:40:50;;;;;;;22.58;15.63;;;;;;;-0.96;100.00;97579.78;5005201;28;20085;-60
2022/01/15 02:43:21;;;;;;;23.27;15.82;;;;;;;-1.06;100.00;97582.72;5007166;28;20089;-59
2022/01/15 02:45:55;;;;;;;21.38;15.75;;;;;;;-0.98;100.00;97580.72;5002482;28;20077;-59
2022/01/15 02:48:25;;;;;;;22.38;15.93;;;;;;;-1.18;100.00;97572.72;5001437;28;20073;-56
2022/01/15 02:50:56;;;;;;;22.23;15.80;;;;;;;-1.20;100.00;97578.78;5003901;28;20093;-60
2022/01/15 02:53:24;;;;;;;;;;;;;;;-1.12;100.00;97577.72;5001360;28;20069;-59
2022/01/15 02:55:54;;;;;;;20.77;14.02;;;;;;;-1.06;100.00;97575.78;5000533;28;20690;-59
2022/01/15 02:58:24;;;;;;;22.52;15.40;;;;;;;-1.09;100.00;97570.69;5015403;28;20077;-59
2022/01/15 03:00:53;;;;;;;21.67;14.80;;;;;;;-1.11;100.00;97566.47;5006117;28;20384;-58
2022/01/15 03:03:22;;;;;;;22.85;14.82;;;;;;;-1.04;100.00;97560.19;5005402;28;20124;-59
2022/01/15 03:05:50;;;;;;;22.50;16.25;;;;;;;-1.05;100.00;97550.75;5004422;28;20069;-56
2022/01/15 03:08:20;;;;;;;22.35;14.55;;;;;;;-1.05;100.00;97549.00;5003511;28;20127;-55
2022/01/15 03:10:48;;;;;;;23.15;15.85;;;;;;;-1.10;100.00;97540.53;5005982;28;20794;-59
2022/01/15 03:13:17;;;;;;;20.10;14.38;;;;;;;-1.13;100.00;97539.78;5009240;28;20092;-59
2022/01/15 03:15:46;;;;;;;21.98;14.57;;;;;;;-0.94;100.00;97533.13;5005681;28;20038;-60
2022/01/15 03:18:14;;;;;;;22.48;14.07;;;;;;;-0.89;100.00;97533.00;5004957;28;20511;-58
2022/01/15 03:20:42;;;;;;;24.13;15.27;;;;;;;-1.02;100.00;97538.56;5005728;28;20081;-59
2022/01/15 03:23:11;;;;;;;24.15;14.95;;;;;;;-0.93;100.00;97528.78;4998222;28;20181;-59
2022/01/15 03:25:41;;;;;;;25.23;14.50;;;;;;;-1.00;100.00;97531.59;5004779;28;20085;-59
2022/01/15 03:28:10;;;;;;;25.98;16.33;;;;;;;-1.66;100.00;97535.28;5003796;28;20077;-58
2022/01/15 03:30:38;;;;;;;34.17;15.68;;;;;;;-1.32;100.00;97529.97;5006443;28;20532;-58
2022/01/15 03:33:07;;;;;;;39.85;16.52;;;;;;;-1.01;100.00;97523.88;5008950;28;20081;-60
2022/01/15 03:35:36;;;;;;;44.45;18.00;;;;;;;-1.12;100.00;97528.53;5004204;28;20084;-54
2022/01/15 03:38:05;;;;;;;54.35;18.83;;;;;;;-1.35;100.00;97534.38;5005228;28;20625;-60
2022/01/15 03:40:34;;;;;;;36.00;18.45;;;;;;;-1.30;100.00;97529.94;5002372;28;20082;-56
2022/01/15 03:43:04;;;;;;;50.08;17.83;;;;;;;-1.20;100.00;97526.19;5007184;28;20479;-57
2022/01/15 03:45:33;;;;;;;45.42;17.55;;;;;;;-1.54;100.00;97529.75;5002977;28;20484;-57
2022/01/15 03:48:02;;;;;;;32.97;16.05;;;;;;;-1.09;100.00;97531.03;5002816;28;20069;-58
2022/01/15 03:50:31;;;;;;;41.13;17.10;;;;;;;-1.04;100.00;97526.53;5004631;28;20150;-59
2022/01/15 03:52:59;;;;;;;32.53;16.42;;;;;;;-1.03;100.00;97526.50;5007007;28;20077;-57
2022/01/15 03:55:28;;;;;;;47.30;18.08;;;;;;;-1.00;100.00;97528.13;5005757;28;20842;-58
2022/01/15 03:57:57;;;;;;;36.78;17.10;;;;;;;-1.31;100.00;97533.41;5009343;28;20531;-59
2022/01/15 04:00:27;;;;;;;58.72;18.63;;;;;;;-1.49;100.00;97539.97;5002544;28;20073;-60
2022/01/15 04:02:56;;;;;;;47.15;18.80;;;;;;;-1.39;100.00;97535.38;4998912;28;20516;-58
2022/01/15 04:05:25;;;;;;;51.38;19.00;;;;;;;-1.20;100.00;97534.78;4993534;28;20066;-56
2022/01/15 04:07:54;;;;;;;54.70;19.20;;;;;;;-1.49;100.00;97543.38;5005068;28;21132;-58
2022/01/15 04:10:22;;;;;;;59.05;19.58;;;;;;;-1.57;100.00;97534.19;5006695;28;20569;-55
2022/01/15 04:12:50;;;;;;;74.35;19.30;;;;;;;-1.57;100.00;97539.34;5006171;28;20053;-58
2022/01/15 04:15:20;;;;;;;75.95;20.65;;;;;;;-1.27;100.00;97547.97;5001733;28;20551;-54
2022/01/15 04:17:51;;;;;;;52.15;19.13;;;;;;;-1.06;100.00;97539.56;5007603;28;20067;-55
2022/01/15 04:20:22;;;;;;;72.35;20.92;;;;;;;-1.00;100.00;97546.25;4999367;28;20068;-59
2022/01/15 04:22:51;;;;;;;47.92;18.75;;;;;;;-1.09;100.00;97546.56;5004193;28;20572;-60
2022/01/15 04:25:20;;;;;;;73.30;19.60;;;;;;;-1.04;100.00;97549.84;5010066;28;20089;-59
2022/01/15 04:27:49;;;;;;;59.42;19.52;;;;;;;-0.89;100.00;97548.53;5006224;28;20065;-56
2022/01/15 04:30:18;;;;;;;52.20;18.67;;;;;;;-0.86;100.00;97546.72;5001023;28;20070;-59
2022/01/15 04:32:46;;;;;;;52.35;18.65;;;;;;;-0.78;100.00;97555.06;4999119;28;20073;-58
2022/01/15 04:35:16;;;;;;;40.45;18.50;;;;;;;-0.58;100.00;97541.50;4993449;28;20069;-58
2022/01/15 04:37:48;;;;;;;56.65;19.73;;;;;;;-1.12;100.00;97550.09;5004945;28;20468;-59
2022/01/15 04:40:17;;;;;;;45.72;19.92;;;;;;;-1.08;100.00;97550.84;5007006;28;20682;-58
2022/01/15 04:42:46;;;;;;;48.65;19.27;;;;;;;-1.06;100.00;97546.47;5003313;28;20065;-57
2022/01/15 04:45:14;;;;;;;60.38;20.80;;;;;;;-0.67;100.00;97546.97;4997704;28;20080;-59
2022/01/15 04:47:42;;;;;;;45.10;19.10;;;;;;;-0.89;100.00;97545.97;5007552;28;20084;-60
2022/01/15 04:50:16;;;;;;;43.30;18.52;;;;;;;-1.08;100.00;97556.00;5002893;28;20600;-59
2022/01/15 04:52:47;;;;;;;54.95;19.90;;;;;;;-0.78;100.00;97542.13;5003300;28;20089;-58
2022/01/15 04:55:15;;;;;;;48.00;20.40;;;;;;;-0.69;100.00;97545.31;5003772;28;20481;-56
2022/01/15 04:57:44;;;;;;;42.33;20.60;;;;;;;-0.41;100.00;97547.84;5001164;28;20072;-59
2022/01/15 05:00:14;;;;;;;58.72;19.88;;;;;;;-0.42;100.00;97534.03;5001790;28;20476;-56
2022/01/15 05:02:43;;;;;;;35.80;18.83;;;;;;;-0.02;100.00;97530.97;5001332;28;20129;-60
2022/01/15 05:05:13;;;;;;;39.38;18.65;;;;;;;0.01;100.00;97535.19;5004623;28;20074;-54
2022/01/15 05:07:42;;;;;;;56.53;19.67;;;;;;;0.10;100.00;97536.59;4997803;28;20104;-58
2022/01/15 05:10:16;;;;;;;40.08;18.92;;;;;;;0.15;100.00;97522.59;4996515;28;20117;-54
2022/01/15 05:12:46;;;;;;;52.38;19.85;;;;;;;0.26;100.00;97527.38;5003909;28;20065;-59
2022/01/15 05:15:16;;;;;;;57.13;19.88;;;;;;;0.43;100.00;97531.97;5010436;28;20107;-58
2022/01/15 05:17:44;;;;;;;79.85;20.48;;;;;;;0.17;100.00;97526.00;5005050;28;20077;-58
2022/01/15 05:20:16;;;;;;;46.40;19.15;;;;;;;0.55;100.00;97528.06;5002143;28;20074;-58
2022/01/15 05:22:45;;;;;;;51.42;19.17;;;;;;;0.38;100.00;97524.38;5009258;28;20081;-59
2022/01/15 05:25:16;;;;;;;42.65;18.02;;;;;;;0.46;100.00;97524.06;5001438;28;20089;-58
2022/01/15 05:27:46;;;;;;;48.85;19.35;;;;;;;0.32;100.00;97534.97;4997272;28;20085;-56
2022/01/15 05:30:33;;;;;;;68.63;19.77;;;;;;;0.39;100.00;97543.38;5005044;28;20059;-59
2022/01/15 05:33:02;;;;;;;59.25;19.05;;;;;;;0.54;100.00;97539.34;5001882;28;20073;-60
2022/01/15 05:35:30;;;;;;;50.53;19.70;;;;;;;0.63;100.00;97533.84;4999058;28;20066;-54
2022/01/15 05:38:00;;;;;;;59.00;18.85;;;;;;;0.60;100.00;97526.16;5003203;28;20084;-54
2022/01/15 05:40:30;;;;;;;60.80;20.88;;;;;;;0.68;100.00;97534.50;5000762;28;20566;-58
2022/01/15 05:42:58;;;;;;;52.75;20.08;;;;;;;0.78;100.00;97535.00;5003670;28;20050;-60
2022/01/15 05:45:28;;;;;;;59.75;20.30;;;;;;;0.69;100.00;97534.47;5000700;28;20108;-56
2022/01/15 05:47:56;;;;;;;59.77;19.17;;;;;;;0.61;100.00;97531.28;5002593;28;20474;-58
2022/01/15 05:50:25;;;;;;;71.53;21.50;;;;;;;0.75;100.00;97542.91;4998043;28;20503;-53
2022/01/15 05:52:53;;;;;;;57.90;19.38;;;;;;;0.82;100.00;97532.22;5003600;28;20080;-58
2022/01/15 05:55:22;;;;;;;50.72;20.00;;;;;;;0.78;100.00;97529.81;5003073;28;20725;-57
2022/01/15 05:57:52;;;;;;;66.50;20.70;;;;;;;0.80;100.00;97525.41;4995971;28;20066;-60
2022/01/15 06:00:20;;;;;;;71.88;20.88;;;;;;;0.57;100.00;97531.47;5003552;28;20061;-56
2022/01/15 06:02:48;;;;;;;87.13;20.50;;;;;;;0.30;100.00;97531.56;5003098;28;20073;-56
2022/01/15 06:05:17;;;;;;;87.82;18.05;;;;;;;-0.02;100.00;97532.72;5001008;28;20065;-59
2022/01/15 06:07:45;;;;;;;78.20;17.88;;;;;;;0.22;100.00;97528.41;4999520;28;20050;-55
2022/01/15 06:10:14;;;;;;;81.95;16.60;;;;;;;0.41;100.00;97539.81;5006103;28;20073;-57
2022/01/15 06:12:44;;;;;;;66.63;16.80;;;;;;;0.62;100.00;97539.91;4994434;28;20073;-54
2022/01/15 06:15:16;;;;;;;89.20;16.75;;;;;;;0.46;100.00;97542.25;5007154;28;20080;-58
2022/01/15 06:17:44;;;;;;;70.13;16.52;;;;;;;0.81;100.00;97538.31;5003186;28;20084;-56
2022/01/15 06:20:15;;;;;;;82.72;15.80;;;;;;;0.80;100.00;97530.63;5001939;28;20507;-57
2022/01/15 06:22:43;;;;;;;81.88;14.68;;;;;;;1.13;100.00;97534.47;4997351;28;20089;-55
2022/01/15 06:25:12;;;;;;;65.13;15.07;;;;;;;0.91;100.00;97537.06;5000203;28;20567;-55
2022/01/15 06:27:40;;;;;;;64.88;15.15;;;;;;;0.87;100.00;97542.44;5004332;28;20073;-57
2022/01/15 06:30:10;;;;;;;43.30;13.65;;;;;;;0.71;100.00;97534.38;5004045;28;20077;-56
2022/01/15 06:32:39;;;;;;;64.85;14.13;;;;;;;0.64;100.00;97538.13;5006317;28;20088;-55
2022/01/15 06:35:10;;;;;;;60.57;12.90;;;;;;;0.65;100.00;97545.88;5008567;28;20069;-57
2022/01/15 06:37:38;;;;;;;41.03;12.23;;;;;;;0.77;100.00;97544.53;5005682;28;20507;-56
2022/01/15 06:40:08;;;;;;;57.10;14.43;;;;;;;0.80;100.00;97539.25;5011307;28;20469;-60
2022/01/15 06:42:37;;;;;;;63.47;14.00;;;;;;;0.94;100.00;97539.56;5006622;28;20069;-60
2022/01/15 06:45:06;;;;;;;65.40;15.00;;;;;;;1.01;100.00;97536.72;5008564;28;20080;-60
2022/01/15 06:47:35;;;;;;;46.75;12.77;;;;;;;1.00;100.00;97541.09;5007508;28;20054;-59
2022/01/15 06:50:06;;;;;;;93.88;15.40;;;;;;;1.23;100.00;97540.16;5007759;28;20076;-60
2022/01/15 06:52:36;;;;;;;113.70;15.43;;;;;;;1.32;100.00;97541.56;4999689;28;20086;-59
2022/01/15 06:55:07;;;;;;;108.03;15.47;;;;;;;1.08;100.00;97536.44;5010652;28;20483;-59
2022/01/15 06:57:36;;;;;;;88.85;14.85;;;;;;;1.02;100.00;97536.66;5003484;28;20528;-56
2022/01/15 07:00:05;;;;;;;67.47;14.43;;;;;;;1.15;100.00;97547.44;5008009;28;20061;-58
2022/01/15 07:02:34;;;;;;;58.13;13.00;;;;;;;1.12;100.00;97540.59;5005242;28;20062;-58
2022/01/15 07:05:04;;;;;;;54.55;13.20;;;;;;;1.07;100.00;97537.34;5007134;28;20515;-54
2022/01/15 07:07:33;;;;;;;108.57;14.38;;;;;;;1.19;100.00;97544.63;5005069;28;20522;-55
2022/01/15 07:10:01;;;;;;;55.58;13.40;;;;;;;1.22;100.00;97535.88;5008499;28;20632;-57
2022/01/15 07:12:30;;;;;;;33.03;10.60;;;;;;;1.18;100.00;97537.75;5004170;28;20070;-55
2022/01/15 07:14:58;;;;;;;38.90;10.50;;;;;;;1.33;100.00;97538.91;5006962;28;20077;-56
2022/01/15 07:17:27;;;;;;;46.35;12.05;;;;;;;1.59;100.00;97540.44;4999645;28;20088;-60
2022/01/15 07:19:55;;;;;;;41.78;11.88;;;;;;;1.55;100.00;97536.28;5002338;28;20106;-60
2022/01/15 07:22:25;;;;;;;39.53;12.57;;;;;;;1.53;100.00;97540.69;5007985;28;20096;-59
2022/01/15 07:24:53;;;;;;;48.77;12.90;;;;;;;1.62;100.00;97529.94;5005714;28;20544;-60
2022/01/15 07:27:21;;;;;;;89.25;13.93;;;;;;;1.91;100.00;97538.25;5003688;28;20512;-60
2022/01/15 07:29:54;;;;;;;33.15;11.73;;;;;;;1.69;100.00;97538.31;5005565;28;20073;-60
2022/01/15 07:32:22;;;;;;;48.70;11.57;;;;;;;1.78;100.00;97537.91;5002162;28;20049;-59
2022/01/15 07:34:51;;;;;;;59.53;12.52;;;;;;;1.81;100.00;97539.56;5006498;28;20093;-61
2022/01/15 07:37:19;;;;;;;102.55;14.30;;;;;;;2.03;100.00;97545.56;5004028;28;20104;-60
2022/01/15 07:39:49;;;;;;;30.70;12.70;;;;;;;1.79;100.00;97541.38;5004777;28;20468;-59
2022/01/15 07:42:18;;;;;;;36.45;12.63;;;;;;;1.75;100.00;97535.44;5007133;28;20062;-60
2022/01/15 07:44:46;;;;;;;30.92;12.77;;;;;;;1.93;100.00;97538.19;5005581;28;20069;-60
2022/01/15 07:47:14;;;;;;;72.18;13.95;;;;;;;2.00;100.00;97532.69;5004330;28;20066;-60
2022/01/15 07:49:43;;;;;;;35.88;12.52;;;;;;;1.84;100.00;97536.84;5005462;28;20093;-60
2022/01/15 07:52:11;;;;;;;43.25;12.32;;;;;;;2.06;100.00;97531.56;5011357;28;20085;-59
2022/01/15 07:54:40;;;;;;;46.90;12.98;;;;;;;1.77;100.00;97535.41;5007844;28;20077;-60
2022/01/15 07:57:10;;;;;;;43.15;12.25;;;;;;;1.78;100.00;97540.53;5006420;28;20077;-60
2022/01/15 07:59:38;;;;;;;41.60;13.23;;;;;;;1.81;100.00;97526.56;5004688;28;20484;-60
2022/01/15 08:02:07;;;;;;;34.95;12.48;;;;;;;2.00;100.00;97524.88;5002960;28;20495;-59
2022/01/15 08:04:35;;;;;;;28.58;11.73;;;;;;;2.04;100.00;97528.19;5006603;28;20476;-60
2022/01/15 08:07:24;;;;;;;24.48;10.88;;;;;;;1.78;100.00;97534.47;5006441;28;20073;-57
2022/01/15 08:10:00;;;;;;;49.53;13.10;;;;;;;1.89;100.00;97527.06;5003591;28;20137;-60
2022/01/15 08:12:29;;;;;;;41.85;12.35;;;;;;;1.89;100.00;97519.25;5003742;28;20528;-60
2022/01/15 08:14:58;;;;;;;37.47;11.57;;;;;;;2.13;100.00;97519.97;5009773;28;20088;-60
2022/01/15 08:17:26;;;;;;;41.80;12.10;;;;;;;1.89;100.00;97521.84;5004624;28;20492;-58
2022/01/15 08:19:55;;;;;;;46.40;12.65;;;;;;;1.81;100.00;97517.00;5005771;28;20590;-62
2022/01/15 08:22:23;;;;;;;38.85;11.93;;;;;;;1.81;100.00;97523.94;5007526;28;20089;-57
2022/01/15 08:24:51;;;;;;;37.38;12.52;;;;;;;1.92;100.00;97519.13;5004724;28;20620;-59
2022/01/15 08:27:20;;;;;;;40.88;11.57;;;;;;;2.16;100.00;97513.78;5003564;28;20066;-60
2022/01/15 08:29:49;;;;;;;35.22;12.57;;;;;;;1.97;100.00;97506.78;5004625;28;20088;-60
2022/01/15 08:32:18;;;;;;;25.63;12.50;;;;;;;2.20;100.00;97510.97;4992533;28;20069;-59
2022/01/15 08:34:46;;;;;;;82.93;13.95;;;;;;;1.98;100.00;97505.88;5007950;28;20919;-60
2022/01/15 08:37:15;;;;;;;24.25;11.50;;;;;;;2.14;100.00;97503.47;5007639;28;20548;-59
2022/01/15 08:39:43;;;;;;;58.83;13.10;;;;;;;2.25;100.00;97505.59;5001326;28;20077;-60
2022/01/15 08:42:12;;;;;;;81.88;13.98;;;;;;;1.98;100.00;97499.84;5005606;28;20088;-57
2022/01/15 08:44:42;;;;;;;39.63;12.88;;;;;;;2.23;100.00;97497.84;5005933;28;20538;-59
2022/01/15 08:47:13;;;;;;;59.83;13.57;;;;;;;2.16;100.00;97495.56;5003017;28;20101;-59
2022/01/15 08:49:41;;;;;;;46.53;12.48;;;;;;;2.00;100.00;97493.66;5003611;28;20078;-58
2022/01/15 08:52:09;;;;;;;43.47;14.40;;;;;;;1.81;100.00;97501.38;5005222;28;20092;-60
2022/01/15 08:54:38;;;;;;;43.85;12.73;;;;;;;2.23;100.00;97505.63;4999451;28;20061;-58
2022/01/15 08:57:07;;;;;;;34.60;12.73;;;;;;;2.10;100.00;97502.75;4998884;28;20077;-55
2022/01/15 08:59:35;;;;;;;48.63;13.25;;;;;;;2.46;100.00;97506.38;5000518;28;20073;-58
2022/01/15 09:02:04;;;;;;;71.45;14.45;;;;;;;2.50;100.00;97508.78;5001411;28;20074;-59
2022/01/15 09:04:34;;;;;;;66.22;14.20;;;;;;;2.54;100.00;97505.13;5007961;28;20559;-60
2022/01/15 09:07:03;;;;;;;;;;;;;;;2.79;100.00;97504.88;5002680;28;21575;-57
2022/01/15 09:09:31;;;;;;;43.15;12.77;;;;;;;2.31;100.00;97500.13;5002691;28;19960;-56
2022/01/15 09:12:00;;;;;;;50.20;13.15;;;;;;;2.36;100.00;97505.94;5000949;28;20065;-59
2022/01/15 09:14:29;;;;;;;38.88;12.45;;;;;;;2.30;100.00;97499.25;5005843;28;20064;-59
2022/01/15 09:16:57;;;;;;;35.88;12.55;;;;;;;2.46;100.00;97502.03;5003761;28;20069;-57
2022/01/15 09:19:26;;;;;;;39.58;13.15;;;;;;;2.19;100.00;97500.66;5007662;28;20077;-54
2022/01/15 09:21:55;;;;;;;41.75;13.23;;;;;;;1.94;100.00;97488.72;5004453;28;20072;-58
2022/01/15 09:24:24;;;;;;;44.00;13.40;;;;;;;2.18;100.00;97485.97;5002886;28;20061;-58
2022/01/15 09:27:02;;;;;;;86.32;15.15;;;;;;;2.13;100.00;97492.22;5004243;28;20072;-59
2022/01/15 09:32:16;;;;;;;63.83;18.17;;;;;;;2.74;100.00;97485.13;5003733;28;20069;-56
2022/01/15 09:34:45;;;;;;;54.25;17.48;;;;;;;2.78;100.00;97490.13;5002919;28;20740;-58
2022/01/15 09:37:14;;;;;;;49.30;15.57;;;;;;;2.57;100.00;97494.56;5005329;28;20092;-59
2022/01/15 09:39:43;;;;;;;46.90;16.90;;;;;;;2.63;100.00;97495.22;5004707;28;20076;-60
2022/01/15 09:42:12;;;;;;;64.05;15.77;;;;;;;3.10;100.00;97479.97;5002396;28;20061;-60
2022/01/15 09:44:40;;;;;;;73.10;16.05;;;;;;;2.85;100.00;97482.88;4998849;28;20077;-60
2022/01/15 09:47:12;;;;;;;76.10;14.90;;;;;;;2.67;100.00;97483.75;5003540;28;20073;-59
2022/01/15 09:49:45;;;;;;;36.70;14.07;;;;;;;2.69;100.00;97489.72;5002939;28;20081;-59
2022/01/15 09:52:15;;;;;;;72.07;17.25;;;;;;;2.43;100.00;97494.34;5003952;28;20069;-60
2022/01/15 09:54:44;;;;;;;46.50;15.18;;;;;;;2.48;100.00;97499.34;5003078;28;20070;-60
2022/01/15 09:57:12;;;;;;;34.47;15.45;;;;;;;2.74;100.00;97487.75;5004398;28;20070;-57
2022/01/15 09:59:41;;;;;;;45.67;15.70;;;;;;;2.46;100.00;97490.78;5003274;28;20471;-57
2022/01/15 10:02:10;;;;;;;41.20;14.45;;;;;;;2.28;100.00;97484.63;5004300;28;20457;-60
2022/01/15 10:04:39;;;;;;;61.47;16.65;;;;;;;2.53;100.00;97479.16;5004332;28;20104;-60
2022/01/15 10:07:17;;;;;;;43.38;15.40;;;;;;;2.75;100.00;97473.78;5006734;28;20085;-60
2022/01/15 10:09:48;;;;;;;43.63;15.43;;;;;;;2.52;100.00;97474.88;5000335;28;20069;-60
2022/01/15 10:12:36;;;;;;;39.58;15.40;;;;;;;2.77;100.00;97464.16;5006811;28;20135;-59
2022/01/15 10:15:06;;;;;;;49.70;15.88;;;;;;;2.63;100.00;97466.56;4997007;28;20050;-59
2022/01/15 10:17:37;;;;;;;36.67;13.98;;;;;;;2.30;100.00;97467.19;5003061;28;20076;-60
2022/01/15 10:20:08;;;;;;;41.72;16.23;;;;;;;2.38;100.00;97472.91;5001858;28;20073;-60
2022/01/15 10:22:40;;;;;;;39.60;15.27;;;;;;;2.40;100.00;97468.44;5003343;28;20090;-60
2022/01/15 10:25:18;;;;;;;30.92;15.18;;;;;;;2.59;100.00;97461.50;5006726;28;20080;-59
2022/01/15 10:27:47;;;;;;;28.80;15.55;;;;;;;2.86;100.00;97453.31;5002333;28;20076;-60
2022/01/15 10:30:18;;;;;;;25.33;13.97;;;;;;;2.35;100.00;97460.88;5004071;28;20057;-59
2022/01/15 10:32:54;;;;;;;26.25;13.07;;;;;;;2.55;100.00;97459.97;5002998;28;20492;-60
2022/01/15 10:35:24;;;;;;;35.90;15.77;;;;;;;2.54;100.00;97458.25;5000006;28;20073;-60
2022/01/15 10:37:54;;;;;;;28.95;14.50;;;;;;;2.53;100.00;97455.72;5002471;28;20077;-58
2022/01/15 10:40:25;;;;;;;;;;;;;;;2.35;100.00;97457.41;5008298;28;20082;-60
2022/01/15 10:42:55;;;;;;;26.63;13.07;;;;;;;2.79;100.00;97454.53;5000099;28;20552;-60
2022/01/15 10:45:25;;;;;;;38.80;16.25;;;;;;;2.56;100.00;97451.22;5002700;28;20069;-59
2022/01/15 10:47:55;;;;;;;26.10;13.77;;;;;;;2.54;100.00;97449.59;5002243;28;20081;-59
2022/01/15 10:50:26;;;;;;;47.33;16.42;;;;;;;2.72;100.00;97445.28;5003981;28;20074;-60
2022/01/15 10:52:56;;;;;;;34.78;15.98;;;;;;;2.69;100.00;97435.88;5002426;28;20073;-60
2022/01/15 10:55:27;;;;;;;34.38;16.55;;;;;;;2.46;100.00;97431.72;5005583;28;20076;-60
2022/01/15 10:57:58;;;;;;;40.92;18.02;;;;;;;2.45;100.00;97439.63;5003484;28;20092;-60
2022/01/15 11:00:27;;;;;;;;;;;;;;;2.47;100.00;97435.19;5002742;28;20081;-59
2022/01/15 11:02:58;;;;;;;33.47;15.55;;;;;;;2.63;100.00;97433.56;5002295;28;19956;-59
2022/01/15 11:05:29;;;;;;;32.50;15.63;;;;;;;2.38;100.00;97420.84;5001778;28;20073;-60
2022/01/15 11:08:19;;;;;;;34.08;17.00;;;;;;;2.32;100.00;97421.97;5003926;28;20073;-59
2022/01/15 11:10:53;;;;;;;30.70;16.42;;;;;;;2.36;100.00;97412.25;5003141;28;20082;-59
2022/01/15 11:13:23;;;;;;;32.97;16.08;;;;;;;2.41;100.00;97409.44;5003397;28;20082;-58
2022/01/15 11:15:56;;;;;;;33.17;16.42;;;;;;;2.51;100.00;97408.09;5002449;28;20069;-58
2022/01/15 11:18:27;;;;;;;31.45;15.80;;;;;;;2.79;100.00;97398.06;5007103;28;20077;-59
2022/01/15 11:21:15;;;;;;;36.45;18.40;;;;;;;2.61;100.00;97391.13;5007086;28;20091;-60
2022/01/15 11:23:44;;;;;;;31.25;15.98;;;;;;;2.64;100.00;97387.53;5003069;28;20069;-58
2022/01/15 11:26:15;;;;;;;39.72;17.08;;;;;;;2.75;100.00;97385.25;5005694;28;20069;-60
2022/01/15 11:28:44;;;;;;;43.38;19.80;;;;;;;2.74;100.00;97384.41;5006809;28;20550;-60
2022/01/15 11:31:15;;;;;;;30.98;17.30;;;;;;;2.76;100.00;97385.19;5007543;28;20503;-59
2022/01/15 11:33:47;;;;;;;49.03;20.00;;;;;;;2.88;100.00;97388.94;5004790;28;20068;-59
2022/01/15 11:36:29;;;;;;;36.50;16.77;;;;;;;2.85;100.00;97386.50;5005830;28;20093;-57
2022/01/15 11:38:58;;;;;;;38.80;16.13;;;;;;;3.14;100.00;97385.09;5005825;28;20104;-59
2022/01/15 11:41:39;;;;;;;30.20;15.57;;;;;;;3.33;100.00;97385.00;5004374;28;20555;-57
2022/01/15 11:44:10;;;;;;;41.40;19.75;;;;;;;3.27;100.00;97383.56;5003920;28;20076;-60